createdAt,value
2023-03-24T00:00:48.220Z,100.00
2023-03-24T00:03:17.099Z,100.00
2023-03-24T00:05:44.729Z,100.00
2023-03-24T00:08:11.272Z,100.00
2023-03-24T00:10:37.685Z,100.00
2023-03-24T00:13:04.324Z,100.00
2023-03-24T00:15:31.357Z,100.00
2023-03-24T00:17:58.559Z,100.00
2023-03-24T00:20:26.111Z,100.00
2023-03-24T00:22:58.450Z,100.00
2023-03-24T00:25:28.033Z,100.00
2023-03-24T00:27:56.176Z,100.00
2023-03-24T00:30:24.982Z,100.00
2023-03-24T00:32:51.844Z,100.00
2023-03-24T00:35:18.848Z,100.00
2023-03-24T00:37:46.117Z,100.00
2023-03-24T00:40:16.388Z,100.00
2023-03-24T00:42:47.666Z,100.00
2023-03-24T00:45:18.005Z,100.00
2023-03-24T00:47:44.796Z,100.00
2023-03-24T00:50:18.625Z,100.00
2023-03-24T00:52:48.008Z,100.00
2023-03-24T00:55:16.015Z,100.00
2023-03-24T00:57:50.261Z,100.00
2023-03-24T01:00:21.030Z,100.00
2023-03-24T01:02:53.534Z,100.00
2023-03-24T01:05:21.899Z,100.00
2023-03-24T01:07:52.960Z,100.00
2023-03-24T01:10:26.014Z,100.00
2023-03-24T01:12:58.179Z,100.00
2023-03-24T01:15:29.503Z,100.00
2023-03-24T01:17:57.583Z,100.00
2023-03-24T01:20:24.904Z,100.00
2023-03-24T01:22:52.006Z,100.00
2023-03-24T01:25:22.499Z,100.00
2023-03-24T01:27:50.679Z,100.00
2023-03-24T01:30:21.025Z,100.00
2023-03-24T01:32:47.606Z,100.00
2023-03-24T01:35:14.650Z,100.00
2023-03-24T01:37:41.220Z,100.00
2023-03-24T01:40:11.539Z,100.00
2023-03-24T01:42:39.617Z,100.00
2023-03-24T01:45:43.944Z,100.00
2023-03-24T01:48:16.370Z,100.00
2023-03-24T01:50:46.515Z,100.00
2023-03-24T01:53:13.485Z,100.00
2023-03-24T01:55:40.440Z,100.00
2023-03-24T01:58:08.738Z,100.00
2023-03-24T02:00:49.883Z,100.00
2023-03-24T02:03:46.735Z,100.00
2023-03-24T02:06:15.108Z,100.00
2023-03-24T02:08:48.266Z,100.00
2023-03-24T02:11:14.794Z,100.00
2023-03-24T02:13:51.155Z,100.00
2023-03-24T02:16:36.210Z,100.00
2023-03-24T02:19:24.949Z,100.00
2023-03-24T02:22:10.756Z,100.00
2023-03-24T02:25:19.624Z,100.00
2023-03-24T02:28:04.914Z,100.00
2023-03-24T02:30:43.823Z,100.00
2023-03-24T02:33:44.517Z,100.00
2023-03-24T02:36:30.211Z,100.00
2023-03-24T02:39:18.745Z,100.00
2023-03-24T02:42:21.103Z,100.00
2023-03-24T02:45:18.214Z,100.00
2023-03-24T02:48:19.555Z,100.00
2023-03-24T02:50:56.317Z,100.00
2023-03-24T02:53:39.004Z,100.00
2023-03-24T02:56:44.007Z,100.00
2023-03-24T02:59:37.430Z,100.00
2023-03-24T03:02:23.520Z,100.00
2023-03-24T03:05:06.751Z,100.00
2023-03-24T03:07:37.309Z,100.00
2023-03-24T03:10:13.513Z,100.00
2023-03-24T03:12:43.802Z,100.00
2023-03-24T03:15:16.596Z,100.00
2023-03-24T03:17:53.119Z,100.00
2023-03-24T03:20:24.703Z,100.00
2023-03-24T03:23:00.671Z,100.00
2023-03-24T03:25:33.227Z,100.00
2023-03-24T03:28:04.594Z,100.00
2023-03-24T03:30:37.742Z,100.00
2023-03-24T03:33:10.156Z,100.00
2023-03-24T03:35:42.205Z,100.00
2023-03-24T03:38:22.971Z,100.00
2023-03-24T03:40:56.077Z,100.00
2023-03-24T03:43:28.085Z,100.00
2023-03-24T03:45:55.178Z,100.00
2023-03-24T03:48:29.186Z,100.00
2023-03-24T03:51:10.125Z,100.00
2023-03-24T03:53:51.077Z,100.00
2023-03-24T03:56:25.348Z,100.00
2023-03-24T03:59:35.275Z,100.00
2023-03-24T04:02:47.347Z,100.00
2023-03-24T04:05:36.662Z,100.00
2023-03-24T04:08:21.992Z,100.00
2023-03-24T04:10:57.388Z,100.00
2023-03-24T04:14:04.639Z,100.00
2023-03-24T04:16:59.805Z,100.00
2023-03-24T04:20:00.320Z,100.00
2023-03-24T04:23:05.042Z,100.00
2023-03-24T04:26:01.613Z,100.00
2023-03-24T04:28:57.949Z,100.00
2023-03-24T04:31:45.059Z,100.00
2023-03-24T04:34:32.221Z,100.00
2023-03-24T04:37:12.320Z,100.00
2023-03-24T04:39:49.598Z,100.00
2023-03-24T04:42:22.822Z,100.00
2023-03-24T04:44:51.427Z,100.00
2023-03-24T04:47:54.000Z,100.00
2023-03-24T04:50:39.727Z,97.03
2023-03-24T04:53:14.528Z,94.97
2023-03-24T04:55:54.124Z,94.61
2023-03-24T04:58:37.895Z,93.23
2023-03-24T05:01:05.881Z,93.00
2023-03-24T05:03:32.613Z,93.60
2023-03-24T05:05:59.320Z,94.06
2023-03-24T05:08:26.035Z,93.81
2023-03-24T05:10:53.020Z,94.02
2023-03-24T05:13:19.763Z,93.75
2023-03-24T05:15:53.223Z,93.38
2023-03-24T05:18:27.635Z,89.31
2023-03-24T05:20:56.324Z,88.99
2023-03-24T05:23:22.708Z,88.50
2023-03-24T05:25:50.122Z,88.47
2023-03-24T05:28:18.451Z,88.52
2023-03-24T05:30:47.390Z,88.23
2023-03-24T05:33:31.124Z,88.52
2023-03-24T05:35:58.730Z,88.56
2023-03-24T05:38:25.538Z,86.90
2023-03-24T05:41:00.885Z,86.82
2023-03-24T05:43:33.037Z,86.02
2023-03-24T05:46:10.277Z,85.45
2023-03-24T05:48:36.706Z,85.00
2023-03-24T05:51:19.622Z,84.66
2023-03-24T05:53:52.095Z,84.66
2023-03-24T05:56:22.522Z,84.45
2023-03-24T05:59:09.411Z,84.31
2023-03-24T06:01:58.469Z,84.07
2023-03-24T06:04:39.148Z,84.27
2023-03-24T06:07:13.150Z,84.49
2023-03-24T06:09:42.360Z,84.49
2023-03-24T06:12:10.954Z,84.80
2023-03-24T06:14:43.780Z,84.60
2023-03-24T06:17:15.786Z,84.47
2023-03-24T06:19:49.329Z,84.69
2023-03-24T06:22:24.241Z,85.16
2023-03-24T06:24:50.664Z,85.58
2023-03-24T06:27:18.718Z,86.73
2023-03-24T06:29:45.690Z,86.81
2023-03-24T06:32:13.896Z,87.39
2023-03-24T06:34:44.004Z,87.32
2023-03-24T06:37:36.086Z,87.48
2023-03-24T06:40:10.214Z,86.81
2023-03-24T06:42:41.246Z,87.25
2023-03-24T06:45:09.332Z,86.37
2023-03-24T06:47:36.173Z,86.49
2023-03-24T06:50:03.316Z,85.81
2023-03-24T06:52:29.800Z,85.73
2023-03-24T06:54:57.518Z,85.53
2023-03-24T06:57:27.324Z,85.73
2023-03-24T07:00:13.705Z,85.99
2023-03-24T07:02:54.883Z,85.06
2023-03-24T07:05:22.450Z,85.42
2023-03-24T07:08:16.917Z,85.59
2023-03-24T07:10:39.768Z,85.13
2023-03-24T07:13:07.459Z,85.27
2023-03-24T07:15:35.757Z,84.79
2023-03-24T07:18:03.498Z,84.64
2023-03-24T07:20:42.705Z,84.14
2023-03-24T07:23:14.871Z,84.16
2023-03-24T07:25:58.994Z,83.07
2023-03-24T07:28:54.607Z,83.36
2023-03-24T07:31:38.095Z,82.76
2023-03-24T07:34:09.158Z,82.52
2023-03-24T07:36:37.566Z,82.94
2023-03-24T07:39:06.864Z,83.07
2023-03-24T07:41:35.025Z,82.96
2023-03-24T07:44:06.172Z,82.26
2023-03-24T07:46:36.829Z,82.67
2023-03-24T07:49:18.285Z,83.29
2023-03-24T07:51:52.139Z,82.63
2023-03-24T07:54:21.926Z,82.17
2023-03-24T07:56:49.079Z,81.34
2023-03-24T07:59:15.632Z,81.75
2023-03-24T08:02:05.351Z,81.49
2023-03-24T08:04:53.663Z,81.29
2023-03-24T08:07:55.462Z,80.46
2023-03-24T08:10:25.124Z,80.66
2023-03-24T08:12:52.055Z,81.10
2023-03-24T08:15:19.134Z,81.27
2023-03-24T08:17:47.364Z,81.02
2023-03-24T08:20:14.573Z,81.47
2023-03-24T08:22:43.213Z,82.22
2023-03-24T08:25:11.439Z,81.54
2023-03-24T08:27:38.954Z,82.04
2023-03-24T08:30:08.435Z,82.32
2023-03-24T08:32:35.510Z,81.80
2023-03-24T08:35:04.793Z,81.47
2023-03-24T08:37:31.434Z,81.86
2023-03-24T08:39:58.470Z,82.34
2023-03-24T08:42:25.656Z,81.89
2023-03-24T08:44:52.753Z,81.63
2023-03-24T08:47:19.178Z,81.55
2023-03-24T08:49:45.800Z,81.63
2023-03-24T08:52:12.197Z,81.01
2023-03-24T08:54:38.739Z,80.45
2023-03-24T08:57:05.286Z,81.34
2023-03-24T08:59:31.700Z,80.06
2023-03-24T09:01:58.276Z,80.22
2023-03-24T09:04:24.707Z,79.82
2023-03-24T09:06:53.462Z,78.61
2023-03-24T09:09:19.849Z,77.07
2023-03-24T09:11:46.626Z,77.86
2023-03-24T09:14:13.029Z,76.82
2023-03-24T09:16:39.624Z,77.13
2023-03-24T09:19:07.311Z,76.72
2023-03-24T09:21:33.725Z,76.18
2023-03-24T09:24:00.755Z,74.94
2023-03-24T09:26:27.142Z,75.86
2023-03-24T09:28:53.509Z,76.78
2023-03-24T09:31:19.922Z,75.50
2023-03-24T09:33:46.784Z,75.80
2023-03-24T09:36:13.322Z,75.95
2023-03-24T09:38:40.219Z,73.77
2023-03-24T09:41:20.862Z,72.25
2023-03-24T09:44:03.372Z,72.75
2023-03-24T09:46:42.193Z,71.77
2023-03-24T09:49:13.299Z,73.33
2023-03-24T09:51:43.896Z,72.33
2023-03-24T09:54:36.639Z,73.20
2023-03-24T09:57:03.915Z,73.56
2023-03-24T09:59:39.538Z,71.06
2023-03-24T10:02:20.456Z,70.63
2023-03-24T10:04:47.430Z,69.34
2023-03-24T10:07:35.826Z,70.97
2023-03-24T10:10:03.335Z,71.02
2023-03-24T10:12:40.092Z,69.91
2023-03-24T10:15:37.808Z,70.26
2023-03-24T10:18:13.893Z,71.92
2023-03-24T10:20:50.246Z,69.58
2023-03-24T10:23:54.897Z,68.21
2023-03-24T10:26:52.025Z,65.43
2023-03-24T10:29:30.743Z,64.67
2023-03-24T10:32:15.484Z,62.82
2023-03-24T10:34:45.239Z,62.68
2023-03-24T10:37:14.102Z,62.84
2023-03-24T10:39:44.578Z,64.33
2023-03-24T10:42:21.656Z,60.72
2023-03-24T10:44:50.901Z,61.32
2023-03-24T10:47:24.073Z,61.54
2023-03-24T10:49:59.438Z,60.74
2023-03-24T10:52:26.336Z,62.42
2023-03-24T10:54:56.195Z,62.87
2023-03-24T10:57:24.579Z,61.88
2023-03-24T10:59:55.924Z,63.21
2023-03-24T11:02:25.890Z,62.42
2023-03-24T11:04:57.914Z,61.88
2023-03-24T11:07:31.027Z,62.76
2023-03-24T11:10:09.880Z,61.49
2023-03-24T11:12:42.821Z,61.99
2023-03-24T11:15:22.905Z,60.25
2023-03-24T11:17:59.434Z,59.87
2023-03-24T11:20:32.609Z,59.50
2023-03-24T11:23:19.695Z,58.69
2023-03-24T11:25:52.748Z,57.23
2023-03-24T11:28:26.267Z,57.10
2023-03-24T11:30:55.355Z,57.38
2023-03-24T11:33:36.247Z,58.01
2023-03-24T11:36:28.333Z,58.93
2023-03-24T11:39:17.495Z,58.36
2023-03-24T11:41:52.470Z,58.63
2023-03-24T11:44:24.762Z,57.86
2023-03-24T11:46:55.961Z,58.79
2023-03-24T11:49:27.312Z,58.18
2023-03-24T11:51:55.444Z,58.28
2023-03-24T11:54:29.605Z,58.77
2023-03-24T11:57:02.543Z,59.95
2023-03-24T11:59:39.798Z,60.40
2023-03-24T12:02:40.889Z,58.37
2023-03-24T12:05:39.297Z,58.05
2023-03-24T12:08:34.692Z,58.56
2023-03-24T12:11:16.220Z,60.32
2023-03-24T12:13:50.460Z,57.55
2023-03-24T12:16:21.769Z,57.40
2023-03-24T12:19:13.219Z,55.94
2023-03-24T12:21:58.363Z,54.14
2023-03-24T12:25:00.760Z,56.82
2023-03-24T12:27:52.282Z,52.86
2023-03-24T12:30:50.728Z,53.33
2023-03-24T12:33:31.120Z,48.95
2023-03-24T12:36:37.084Z,46.59
2023-03-24T12:39:13.091Z,47.33
2023-03-24T12:42:04.676Z,43.57
2023-03-24T12:44:51.415Z,45.28
2023-03-24T12:47:44.170Z,44.52
2023-03-24T12:50:25.841Z,45.00
2023-03-24T12:53:12.678Z,44.99
2023-03-24T12:55:48.191Z,46.53
2023-03-24T12:58:37.601Z,45.48
2023-03-24T13:01:22.627Z,46.42
2023-03-24T13:04:07.757Z,46.90
2023-03-24T13:06:40.683Z,46.99
2023-03-24T13:09:25.677Z,48.33
2023-03-24T13:12:13.660Z,51.56
2023-03-24T13:15:03.824Z,60.35
2023-03-24T13:17:40.412Z,60.59
2023-03-24T13:20:13.985Z,62.39
2023-03-24T13:22:41.246Z,68.16
2023-03-24T13:25:26.751Z,71.60
2023-03-24T13:27:59.233Z,71.85
2023-03-24T13:30:38.551Z,71.93
2023-03-24T13:33:16.823Z,69.80
2023-03-24T13:36:04.672Z,69.47
2023-03-24T13:38:43.409Z,66.28
2023-03-24T13:41:24.017Z,65.71
2023-03-24T13:43:58.893Z,62.40
2023-03-24T13:46:25.650Z,62.17
2023-03-24T13:48:56.183Z,61.02
2023-03-24T13:51:35.713Z,59.36
2023-03-24T13:54:14.173Z,59.20
2023-03-24T13:56:48.999Z,61.37
2023-03-24T13:59:26.134Z,63.03
2023-03-24T14:02:17.477Z,65.47
2023-03-24T14:05:03.819Z,68.34
2023-03-24T14:07:32.391Z,72.26
2023-03-24T14:10:24.755Z,79.55
2023-03-24T14:13:00.286Z,85.01
2023-03-24T14:15:41.200Z,86.93
2023-03-24T14:18:34.732Z,90.34
2023-03-24T14:21:03.677Z,89.65
2023-03-24T14:23:43.847Z,87.10
2023-03-24T14:26:23.186Z,84.20
2023-03-24T14:28:54.262Z,80.93
2023-03-24T14:31:24.549Z,78.61
2023-03-24T14:33:54.494Z,80.32
2023-03-24T14:36:31.119Z,80.30
2023-03-24T14:39:23.360Z,78.71
2023-03-24T14:41:51.926Z,77.44
2023-03-24T14:44:49.209Z,76.39
2023-03-24T14:47:21.533Z,73.69
2023-03-24T14:49:51.411Z,73.38
2023-03-24T14:52:35.075Z,71.89
2023-03-24T14:55:10.719Z,71.30
2023-03-24T14:57:54.663Z,71.77
2023-03-24T15:00:27.245Z,71.89
2023-03-24T15:03:01.895Z,72.36
2023-03-24T15:05:31.219Z,71.77
2023-03-24T15:08:18.930Z,72.22
2023-03-24T15:10:53.224Z,71.98
2023-03-24T15:13:57.300Z,72.32
2023-03-24T15:16:27.334Z,73.66
2023-03-24T15:19:09.874Z,74.96
2023-03-24T15:21:46.601Z,76.52
2023-03-24T15:24:22.262Z,76.87
2023-03-24T15:27:07.432Z,76.88
2023-03-24T15:29:42.373Z,81.21
2023-03-24T15:32:21.690Z,86.15
2023-03-24T15:34:53.288Z,87.54
2023-03-24T15:37:32.430Z,88.02
2023-03-24T15:40:09.106Z,89.19
2023-03-24T15:42:44.741Z,88.30
2023-03-24T15:45:24.761Z,88.25
2023-03-24T15:47:53.490Z,86.88
2023-03-24T15:50:38.221Z,87.82
2023-03-24T15:53:24.856Z,88.29
2023-03-24T15:56:05.308Z,88.47
2023-03-24T15:58:46.726Z,87.38
2023-03-24T16:01:17.451Z,87.67
2023-03-24T16:03:48.222Z,87.25
2023-03-24T16:06:24.300Z,86.87
2023-03-24T16:08:50.753Z,87.06
2023-03-24T16:11:17.195Z,86.45
2023-03-24T16:13:45.564Z,86.65
2023-03-24T16:16:14.828Z,87.32
2023-03-24T16:18:48.959Z,86.39
2023-03-24T16:21:16.523Z,86.23
2023-03-24T16:23:43.866Z,87.47
2023-03-24T16:26:15.324Z,84.10
2023-03-24T16:28:41.942Z,82.57
2023-03-24T16:31:17.840Z,80.29
2023-03-24T16:33:44.294Z,80.40
2023-03-24T16:36:12.202Z,78.19
2023-03-24T16:38:38.796Z,77.90
2023-03-24T16:41:05.665Z,78.45
2023-03-24T16:43:34.094Z,78.89
2023-03-24T16:46:00.674Z,78.69
2023-03-24T16:48:27.147Z,78.92
2023-03-24T16:50:54.806Z,79.79
2023-03-24T16:53:21.605Z,80.07
2023-03-24T16:55:48.467Z,79.10
2023-03-24T16:58:16.359Z,78.61
2023-03-24T17:00:43.800Z,79.03
2023-03-24T17:03:10.788Z,79.19
2023-03-24T17:05:43.000Z,79.49
2023-03-24T17:08:10.348Z,79.31
2023-03-24T17:10:37.522Z,79.57
2023-03-24T17:13:03.925Z,79.33
2023-03-24T17:15:31.635Z,78.15
2023-03-24T17:17:58.246Z,77.50
2023-03-24T17:20:24.907Z,78.12
2023-03-24T17:22:54.230Z,78.20
2023-03-24T17:25:22.728Z,77.92
2023-03-24T17:27:50.666Z,78.12
2023-03-24T17:30:20.340Z,78.33
2023-03-24T17:32:46.948Z,78.29
2023-03-24T17:35:16.542Z,78.48
2023-03-24T17:37:43.224Z,78.56
2023-03-24T17:40:10.714Z,78.50
2023-03-24T17:42:38.956Z,78.92
2023-03-24T17:45:07.759Z,79.26
2023-03-24T17:47:34.725Z,79.32
2023-03-24T17:50:01.259Z,79.73
2023-03-24T17:52:27.709Z,80.19
2023-03-24T17:54:54.150Z,81.02
2023-03-24T17:57:20.848Z,81.31
2023-03-24T17:59:47.349Z,81.51
2023-03-24T18:02:13.748Z,82.10
2023-03-24T18:04:40.130Z,82.50
2023-03-24T18:07:06.938Z,83.26
2023-03-24T18:09:34.081Z,83.48
2023-03-24T18:12:00.808Z,83.58
2023-03-24T18:14:27.307Z,83.63
2023-03-24T18:16:53.837Z,83.98
2023-03-24T18:19:20.690Z,84.24
2023-03-24T18:21:47.291Z,84.59
2023-03-24T18:24:13.647Z,85.13
2023-03-24T18:26:40.325Z,84.73
2023-03-24T18:29:06.861Z,86.12
2023-03-24T18:31:33.871Z,86.32
2023-03-24T18:34:00.539Z,86.54
2023-03-24T18:36:27.166Z,86.15
2023-03-24T18:39:05.766Z,86.55
2023-03-24T18:41:36.646Z,86.76
2023-03-24T18:44:05.575Z,87.63
2023-03-24T18:46:32.099Z,87.81
2023-03-24T18:48:58.942Z,87.69
2023-03-24T18:51:26.497Z,87.98
2023-03-24T18:53:53.118Z,87.97
2023-03-24T18:56:21.774Z,88.42
2023-03-24T18:58:50.953Z,88.80
2023-03-24T19:01:23.120Z,88.89
2023-03-24T19:03:50.806Z,88.83
2023-03-24T19:06:18.083Z,88.54
2023-03-24T19:08:49.357Z,88.52
2023-03-24T19:11:16.315Z,88.68
2023-03-24T19:13:49.655Z,89.00
2023-03-24T19:16:17.840Z,89.05
2023-03-24T19:18:44.620Z,89.13
2023-03-24T19:21:12.629Z,88.72
2023-03-24T19:23:39.105Z,88.53
2023-03-24T19:26:05.608Z,88.53
2023-03-24T19:28:33.870Z,88.97
2023-03-24T19:31:08.624Z,89.16
2023-03-24T19:33:36.615Z,89.00
2023-03-24T19:36:05.116Z,89.77
2023-03-24T19:38:32.353Z,90.76
2023-03-24T19:41:04.938Z,91.42
2023-03-24T19:43:32.923Z,92.35
2023-03-24T19:45:59.406Z,92.20
2023-03-24T19:48:26.281Z,92.26
2023-03-24T19:50:54.605Z,91.61
2023-03-24T19:53:22.321Z,91.75
2023-03-24T19:55:49.654Z,91.73
2023-03-24T19:58:17.130Z,91.60
2023-03-24T20:00:43.882Z,90.65
2023-03-24T20:03:10.948Z,90.60
2023-03-24T20:05:37.543Z,90.29
2023-03-24T20:08:04.160Z,90.03
2023-03-24T20:10:30.562Z,89.89
2023-03-24T20:12:57.116Z,89.94
2023-03-24T20:15:23.541Z,89.81
2023-03-24T20:17:50.485Z,90.11
2023-03-24T20:20:16.998Z,90.83
2023-03-24T20:22:45.674Z,90.89
2023-03-24T20:25:14.408Z,89.87
2023-03-24T20:27:41.135Z,90.55
2023-03-24T20:30:08.245Z,89.80
2023-03-24T20:32:35.620Z,89.46
2023-03-24T20:35:03.927Z,88.20
2023-03-24T20:37:30.876Z,87.27
2023-03-24T20:39:57.251Z,86.65
2023-03-24T20:42:24.385Z,86.14
2023-03-24T20:44:50.933Z,86.26
2023-03-24T20:47:19.063Z,85.86
2023-03-24T20:49:45.752Z,85.52
2023-03-24T20:52:14.240Z,85.01
2023-03-24T20:54:41.551Z,84.79
2023-03-24T20:57:12.725Z,85.61
2023-03-24T20:59:39.449Z,85.71
2023-03-24T21:02:06.533Z,85.57
2023-03-24T21:04:33.589Z,85.47
2023-03-24T21:07:00.044Z,85.73
2023-03-24T21:09:27.550Z,86.70
2023-03-24T21:11:54.147Z,86.48
2023-03-24T21:14:20.857Z,86.96
2023-03-24T21:16:47.466Z,87.43
2023-03-24T21:19:14.588Z,87.24
2023-03-24T21:21:42.740Z,87.30
2023-03-24T21:24:09.222Z,87.61
2023-03-24T21:26:35.594Z,87.65
2023-03-24T21:29:01.973Z,88.06
2023-03-24T21:31:29.584Z,88.47
2023-03-24T21:33:56.812Z,88.53
2023-03-24T21:36:25.050Z,87.91
2023-03-24T21:38:53.801Z,87.99
2023-03-24T21:41:21.254Z,88.16
2023-03-24T21:43:50.973Z,88.27
2023-03-24T21:46:22.229Z,88.35
2023-03-24T21:48:55.626Z,87.86
2023-03-24T21:51:25.184Z,87.98
2023-03-24T21:53:59.108Z,88.10
2023-03-24T21:56:25.526Z,88.21
2023-03-24T21:58:55.130Z,88.49
2023-03-24T22:01:22.526Z,88.34
2023-03-24T22:03:50.614Z,88.21
2023-03-24T22:06:17.275Z,87.96
2023-03-24T22:08:44.340Z,88.34
2023-03-24T22:11:11.561Z,87.86
2023-03-24T22:13:39.175Z,86.89
2023-03-24T22:16:07.076Z,86.85
2023-03-24T22:18:35.225Z,87.08
2023-03-24T22:21:04.590Z,86.77
2023-03-24T22:23:33.305Z,86.55
2023-03-24T22:26:04.101Z,86.10
2023-03-24T22:28:32.822Z,85.81
2023-03-24T22:31:07.892Z,86.97
2023-03-24T22:33:34.738Z,88.20
2023-03-24T22:36:02.291Z,90.32
2023-03-24T22:38:29.524Z,90.62
2023-03-24T22:41:05.187Z,92.67
2023-03-24T22:43:32.004Z,94.21
2023-03-24T22:45:58.697Z,95.06
2023-03-24T22:48:25.532Z,94.97
2023-03-24T22:50:53.083Z,94.61
2023-03-24T22:53:20.260Z,94.62
2023-03-24T22:55:46.659Z,94.61
2023-03-24T22:58:13.766Z,94.51
2023-03-24T23:00:41.638Z,94.82
2023-03-24T23:03:08.712Z,94.90
2023-03-24T23:05:39.834Z,95.69
2023-03-24T23:08:07.301Z,95.76
2023-03-24T23:10:33.778Z,95.37
2023-03-24T23:13:00.349Z,95.74
2023-03-24T23:15:26.724Z,95.48
2023-03-24T23:17:53.131Z,95.15
2023-03-24T23:20:20.046Z,94.81
2023-03-24T23:22:47.660Z,94.41
2023-03-24T23:25:14.853Z,94.43
2023-03-24T23:27:42.176Z,94.54
2023-03-24T23:30:11.428Z,93.79
2023-03-24T23:32:38.840Z,93.25
2023-03-24T23:35:06.886Z,92.98
2023-03-24T23:37:34.038Z,92.65
2023-03-24T23:40:12.320Z,91.41
2023-03-24T23:42:40.774Z,91.72
2023-03-24T23:45:09.018Z,92.06
2023-03-24T23:47:36.700Z,91.76
2023-03-24T23:50:07.195Z,90.77
2023-03-24T23:52:34.806Z,90.94
2023-03-24T23:55:04.621Z,90.91
2023-03-24T23:57:31.665Z,90.35
2023-03-24T23:59:59.789Z,90.24
